Iuka, Kansas
Current Conditions -  °F | °C
As of 6:15 AM on Saturday 25 Oct 2014 (Local Time) from KPTT Reporting Station
Clear Clear  
Wind Chill: 55°   Ceiling: Unl
Heat Index: 55°   Visibility: 7mi
Dew Point: 54°   Wind: 6mph
Humidity: 94%   Direction: 260°W
Pressure: 30.06"   Gusts: NA
Location:  37.73°N, 98.74°W
Report Text: KPTT 251115Z AUTO 26005KT 7SM CLR 13/12 A3006 RMK AO2
Loading
Personal Weather Stations






























Interactive Weather Map
Tropical Storm Tracking
New forecast layout! Learn more

10-Day Weather Forecast

Advertisements
Track Severe Weather on mobile